Time;durP1;ratioP1;P1;durP2;ratioP2;P2;SDS_P1;SDS_P2;PMS_P1;PMS_P2;Temp;Humidity;BMP_temperature;BMP_pressure;BME280_temperature;BME280_humidity;BME280_pressure;Samples;Min_cycle;Max_cycle;Signal;HPM_P1;HPM_P2
2023/12/13 00:00:26;;;;;;;60.72;18.92;;;;;;;2.06;100.00;98705.72;5118409;28;20128;-65
2023/12/13 00:02:52;;;;;;;67.53;16.58;;;;;;;2.17;100.00;98707.00;5117746;28;20087;-69
2023/12/13 00:05:18;;;;;;;62.15;15.50;;;;;;;2.05;100.00;98704.16;5120045;28;20097;-66
2023/12/13 00:07:45;;;;;;;48.58;16.75;;;;;;;2.03;100.00;98717.19;5117700;28;20053;-64
2023/12/13 00:10:11;;;;;;;46.58;15.23;;;;;;;2.17;100.00;98720.53;5120021;28;20389;-64
2023/12/13 00:12:38;;;;;;;54.20;16.67;;;;;;;2.07;100.00;98713.53;5117528;28;20425;-68
2023/12/13 00:15:07;;;;;;;45.72;16.73;;;;;;;1.98;100.00;98715.44;5119520;28;20091;-64
2023/12/13 00:17:33;;;;;;;69.65;17.30;;;;;;;1.98;100.00;98717.38;5117378;28;20368;-66
2023/12/13 00:19:59;;;;;;;49.42;17.77;;;;;;;2.07;100.00;98720.88;5119890;28;20056;-65
2023/12/13 00:22:26;;;;;;;43.83;17.10;;;;;;;2.03;100.00;98723.41;5117378;28;20152;-68
2023/12/13 00:24:52;;;;;;;45.17;14.45;;;;;;;1.99;100.00;98722.44;5119972;28;20379;-64
2023/12/13 00:27:18;;;;;;;43.22;16.50;;;;;;;2.05;100.00;98728.50;5117151;28;20148;-69
2023/12/13 00:29:45;;;;;;;50.47;15.38;;;;;;;2.05;100.00;98718.47;5117172;28;20056;-68
2023/12/13 00:32:12;;;;;;;37.75;13.77;;;;;;;1.99;100.00;98721.66;5119644;28;20051;-65
2023/12/13 00:34:38;;;;;;;36.47;13.05;;;;;;;1.59;100.00;98727.19;5117405;28;20128;-64
2023/12/13 00:37:05;;;;;;;40.95;13.52;;;;;;;1.85;100.00;98719.91;5119419;28;20105;-68
2023/12/13 00:39:32;;;;;;;38.60;14.25;;;;;;;1.70;100.00;98724.97;5117076;28;20142;-69
2023/12/13 00:41:58;;;;;;;37.03;13.13;;;;;;;1.77;100.00;98718.00;5119454;28;20047;-70
2023/12/13 00:44:24;;;;;;;30.67;12.43;;;;;;;1.78;100.00;98725.00;5116997;28;20429;-66
2023/12/13 00:46:51;;;;;;;30.38;12.60;;;;;;;1.89;100.00;98711.94;5119507;28;20149;-66
2023/12/13 00:49:20;;;;;;;28.52;12.70;;;;;;;1.81;100.00;98721.66;5116937;28;20089;-66
2023/12/13 00:51:46;;;;;;;32.30;12.18;;;;;;;1.83;100.00;98729.44;5119499;28;20302;-69
2023/12/13 00:54:12;;;;;;;32.45;12.77;;;;;;;1.84;100.00;98714.81;5116761;28;20098;-65
2023/12/13 00:56:39;;;;;;;24.38;11.52;;;;;;;1.79;100.00;98715.75;5118112;28;20113;-69
2023/12/13 00:59:05;;;;;;;24.30;11.23;;;;;;;1.95;100.00;98709.88;5118332;28;20143;-65
2023/12/13 01:01:31;;;;;;;37.80;13.38;;;;;;;2.07;100.00;98716.25;5116506;28;20139;-66
2023/12/13 01:03:58;;;;;;;28.27;11.23;;;;;;;1.82;100.00;98711.63;5119270;28;20393;-68
2023/12/13 01:06:24;;;;;;;35.72;12.25;;;;;;;1.82;100.00;98722.44;5116879;28;20083;-67
2023/12/13 01:08:51;;;;;;;33.17;12.23;;;;;;;1.98;100.00;98709.25;5119010;28;20062;-68
2023/12/13 01:11:20;;;;;;;28.13;11.43;;;;;;;1.93;100.00;98710.19;5116571;28;20147;-65
2023/12/13 01:13:47;;;;;;;34.22;12.23;;;;;;;2.02;100.00;98721.00;5119013;28;20083;-68
2023/12/13 01:16:13;;;;;;;39.70;13.98;;;;;;;1.99;100.00;98721.66;5116571;28;20055;-64
2023/12/13 01:18:39;;;;;;;29.08;12.35;;;;;;;1.77;100.00;98726.09;5119110;28;20369;-68
2023/12/13 01:21:06;;;;;;;36.70;13.15;;;;;;;2.05;100.00;98709.56;5116387;28;20090;-64
2023/12/13 01:23:33;;;;;;;35.90;13.18;;;;;;;1.99;100.00;98717.03;5118049;28;20472;-65
2023/12/13 01:25:59;;;;;;;33.50;13.10;;;;;;;2.04;100.00;98707.97;5117321;28;20138;-68
2023/12/13 01:28:25;;;;;;;30.35;13.40;;;;;;;2.17;100.00;98717.84;5116484;28;20510;-64
2023/12/13 01:30:52;;;;;;;34.08;12.73;;;;;;;2.05;100.00;98713.06;5118481;28;20059;-69
2023/12/13 01:33:19;;;;;;;32.08;12.35;;;;;;;2.01;100.00;98719.44;5116421;28;20075;-64
2023/12/13 01:35:45;;;;;;;33.50;11.90;;;;;;;1.87;100.00;98728.50;5118546;28;20070;-65
2023/12/13 01:38:12;;;;;;;33.97;13.18;;;;;;;1.90;100.00;98732.47;5116268;28;20060;-69
2023/12/13 01:40:38;;;;;;;46.78;12.40;;;;;;;2.07;100.00;98731.69;5118563;28;20098;-65
2023/12/13 01:43:05;;;;;;;31.33;11.32;;;;;;;2.11;100.00;98721.81;5116232;28;20134;-69
2023/12/13 01:45:31;;;;;;;33.75;13.43;;;;;;;2.08;100.00;98728.66;5118509;28;20420;-65
2023/12/13 01:47:57;;;;;;;33.50;12.85;;;;;;;2.00;100.00;98723.22;5115948;28;20054;-66
2023/12/13 01:50:25;;;;;;;32.88;13.18;;;;;;;2.08;100.00;98730.56;5118529;28;20063;-68
2023/12/13 01:52:54;;;;;;;32.65;13.60;;;;;;;2.08;100.00;98717.84;5115912;28;20190;-64
2023/12/13 01:55:22;;;;;;;31.60;12.95;;;;;;;1.99;100.00;98718.94;5116107;28;20142;-65
2023/12/13 01:57:48;;;;;;;34.03;13.00;;;;;;;2.08;100.00;98719.75;5118037;28;20406;-67
2023/12/13 02:00:16;;;;;;;31.67;11.98;;;;;;;2.00;100.00;98724.06;5115959;28;20134;-65
2023/12/13 02:02:43;;;;;;;35.20;13.30;;;;;;;1.97;100.00;98723.91;5118203;28;20369;-67
2023/12/13 02:05:12;;;;;;;41.05;13.57;;;;;;;1.87;100.00;98733.91;5115683;28;20083;-65
2023/12/13 02:07:39;;;;;;;37.00;13.82;;;;;;;2.03;100.00;98728.81;5118155;28;20083;-65
2023/12/13 02:10:07;;;;;;;45.10;15.02;;;;;;;1.96;100.00;98722.28;5115599;28;20087;-68
2023/12/13 02:12:34;;;;;;;34.13;13.55;;;;;;;1.94;100.00;98716.41;5117353;28;20051;-64
2023/12/13 02:15:01;;;;;;;38.88;14.10;;;;;;;1.86;100.00;98721.47;5115537;28;20056;-69
2023/12/13 02:17:27;;;;;;;31.63;13.60;;;;;;;1.76;100.00;98729.91;5118200;28;20372;-64
2023/12/13 02:19:53;;;;;;;39.22;13.35;;;;;;;1.86;100.00;98723.41;5115455;28;20417;-68
2023/12/13 02:22:20;;;;;;;32.20;12.07;;;;;;;1.96;100.00;98722.28;5115459;28;20091;-64
2023/12/13 02:24:49;;;;;;;32.97;11.48;;;;;;;2.02;100.00;98715.59;5117815;28;20091;-68
2023/12/13 02:27:17;;;;;;;39.85;13.95;;;;;;;2.05;100.00;98725.78;5115452;28;20055;-68
2023/12/13 02:29:47;;;;;;;36.50;14.55;;;;;;;1.65;100.00;98728.63;5117420;28;20440;-68
2023/12/13 02:32:13;;;;;;;37.28;14.55;;;;;;;1.94;100.00;98727.22;5115404;28;20048;-63
2023/12/13 02:34:41;;;;;;;32.72;14.00;;;;;;;2.10;100.00;98728.34;5117695;28;20428;-68
2023/12/13 02:37:07;;;;;;;41.55;15.18;;;;;;;2.00;100.00;98724.06;5115216;28;20139;-64
2023/12/13 02:39:34;;;;;;;41.55;16.08;;;;;;;1.99;100.00;98724.34;5117759;28;20091;-66
2023/12/13 02:42:00;;;;;;;36.05;14.30;;;;;;;2.00;100.00;98725.94;5115154;28;20093;-67
2023/12/13 02:44:26;;;;;;;36.20;13.82;;;;;;;2.08;100.00;98723.25;5117721;28;20506;-65
2023/12/13 02:46:57;;;;;;;40.40;16.85;;;;;;;2.02;100.00;98719.09;5115010;28;20056;-68
2023/12/13 02:49:24;;;;;;;42.95;16.13;;;;;;;2.07;100.00;98716.25;5114991;28;20052;-68
2023/12/13 02:51:51;;;;;;;43.38;15.77;;;;;;;2.12;100.00;98715.28;5117480;28;20329;-66
2023/12/13 02:54:17;;;;;;;36.00;16.33;;;;;;;1.93;100.00;98722.91;5114936;28;20086;-66
2023/12/13 02:56:44;;;;;;;38.80;15.73;;;;;;;1.99;100.00;98727.06;5117237;28;20433;-68
2023/12/13 02:59:11;;;;;;;32.72;14.18;;;;;;;1.88;100.00;98735.47;5114861;28;20421;-65
2023/12/13 03:01:37;;;;;;;35.40;16.08;;;;;;;1.74;100.00;98729.44;5117161;28;20397;-66
2023/12/13 03:04:04;;;;;;;42.75;15.73;;;;;;;1.60;100.00;98726.06;5114878;28;20098;-66
2023/12/13 03:06:30;;;;;;;39.95;16.80;;;;;;;1.80;100.00;98709.25;5117378;28;20055;-65
2023/12/13 03:08:57;;;;;;;42.92;15.68;;;;;;;1.98;100.00;98717.38;5114700;28;20146;-69
2023/12/13 03:11:23;;;;;;;58.75;19.48;;;;;;;2.00;100.00;98712.41;5117321;28;20089;-65
2023/12/13 03:13:50;;;;;;;49.75;18.40;;;;;;;2.04;100.00;98719.59;5114556;28;20063;-68
2023/12/13 03:16:16;;;;;;;67.47;20.17;;;;;;;1.96;100.00;98722.28;5114720;28;20429;-65
2023/12/13 03:18:43;;;;;;;46.20;17.67;;;;;;;2.06;100.00;98722.75;5100035;28;20058;-67
2023/12/13 03:21:09;;;;;;;51.80;17.30;;;;;;;1.82;100.00;98728.66;5114602;28;20094;-66
2023/12/13 03:23:35;;;;;;;51.35;16.83;;;;;;;1.89;100.00;98723.56;5116611;28;20062;-65
2023/12/13 03:26:02;;;;;;;61.10;16.38;;;;;;;1.91;100.00;98717.06;5114763;28;20138;-69
2023/12/13 03:28:28;;;;;;;40.47;16.70;;;;;;;1.80;100.00;98719.25;5116787;28;20062;-67
2023/12/13 03:30:55;;;;;;;41.00;15.05;;;;;;;1.58;100.00;98726.41;5114620;28;20398;-66
2023/12/13 03:33:21;;;;;;;71.50;15.73;;;;;;;1.26;100.00;98724.91;5116691;28;20117;-68
2023/12/13 03:35:48;;;;;;;77.40;14.57;;;;;;;1.66;100.00;98705.91;5114440;28;20426;-64
2023/12/13 03:38:14;;;;;;;51.63;16.30;;;;;;;1.86;100.00;98696.38;5116461;28;20066;-69
2023/12/13 03:40:40;;;;;;;45.88;16.42;;;;;;;1.46;100.00;98715.41;5114317;28;20486;-64
2023/12/13 03:43:06;;;;;;;61.38;15.35;;;;;;;1.01;100.00;98694.03;5116338;28;20376;-66
2023/12/13 03:45:34;;;;;;;43.50;14.65;;;;;;;1.32;100.00;98668.84;5115030;28;20090;-68
2023/12/13 03:48:01;;;;;;;53.25;14.07;;;;;;;1.29;100.00;98661.38;5114401;28;20143;-68
2023/12/13 03:50:27;;;;;;;41.83;13.35;;;;;;;0.94;100.00;98656.69;5116459;28;20063;-66
2023/12/13 03:52:54;;;;;;;39.13;13.60;;;;;;;1.37;100.00;98634.38;5114368;28;20055;-68
2023/12/13 03:55:20;;;;;;;40.20;14.15;;;;;;;0.97;100.00;98643.66;5116613;28;20325;-64
2023/12/13 03:57:46;;;;;;;52.25;14.25;;;;;;;0.81;100.00;98636.03;5114171;28;20086;-69
2023/12/13 04:00:13;;;;;;;35.75;14.65;;;;;;;1.41;100.00;98615.63;5116487;28;20056;-64
2023/12/13 04:02:39;;;;;;;59.50;15.63;;;;;;;1.72;100.00;98610.06;5114235;28;20071;-68
2023/12/13 04:05:07;;;;;;;44.90;15.48;;;;;;;1.84;100.00;98636.44;5116699;28;20086;-64
2023/12/13 04:07:33;;;;;;;63.15;18.55;;;;;;;1.82;100.00;98665.69;5114089;28;20113;-68
2023/12/13 04:10:00;;;;;;;44.30;16.02;;;;;;;1.96;100.00;98685.22;5116538;28;20091;-65
2023/12/13 04:12:26;;;;;;;74.57;15.75;;;;;;;1.90;100.00;98686.53;5114010;28;20055;-69
2023/12/13 04:14:52;;;;;;;43.90;16.00;;;;;;;1.87;100.00;98701.47;5113870;28;20083;-65
2023/12/13 04:17:19;;;;;;;45.83;16.10;;;;;;;1.87;100.00;98717.69;5116113;28;20095;-66
2023/12/13 04:19:45;;;;;;;42.63;17.98;;;;;;;1.56;100.00;98719.72;5113815;28;20063;-68
2023/12/13 04:22:12;;;;;;;40.38;16.08;;;;;;;1.73;100.00;98702.72;5116286;28;20382;-63
2023/12/13 04:24:38;;;;;;;42.47;14.00;;;;;;;1.20;100.00;98709.97;5113802;28;20425;-69
2023/12/13 04:27:05;;;;;;;44.35;15.30;;;;;;;1.00;100.00;98689.75;5116170;28;20055;-64
2023/12/13 04:29:31;;;;;;;43.13;15.32;;;;;;;1.70;100.00;98650.13;5113688;28;20146;-64
2023/12/13 04:31:58;;;;;;;45.63;15.73;;;;;;;1.83;100.00;98649.16;5116116;28;20052;-66
2023/12/13 04:34:24;;;;;;;52.25;15.65;;;;;;;1.92;100.00;98678.09;5113566;28;20048;-68
2023/12/13 04:36:50;;;;;;;81.20;18.92;;;;;;;2.02;100.00;98702.09;5118031;28;20063;-64
2023/12/13 04:39:17;;;;;;;43.30;15.93;;;;;;;1.95;100.00;98716.09;5117106;28;20060;-68
2023/12/13 04:41:44;;;;;;;107.38;19.20;;;;;;;1.66;100.00;98722.09;5117671;28;20048;-64
2023/12/13 04:44:12;;;;;;;84.43;19.35;;;;;;;1.83;100.00;98724.03;5118618;28;20112;-67
2023/12/13 04:46:38;;;;;;;64.63;20.63;;;;;;;1.94;100.00;98730.72;5117287;28;20154;-69
2023/12/13 04:49:06;;;;;;;130.65;19.58;;;;;;;2.02;100.00;98721.81;5119180;28;20066;-68
2023/12/13 04:51:32;;;;;;;69.30;17.45;;;;;;;1.90;100.00;98724.38;5117077;28;20055;-65
2023/12/13 04:53:58;;;;;;;70.13;17.73;;;;;;;2.11;100.00;98714.50;5119451;28;20108;-64
2023/12/13 04:56:26;;;;;;;61.40;19.15;;;;;;;1.95;100.00;98729.59;5116911;28;20425;-66
2023/12/13 04:58:53;;;;;;;72.30;19.73;;;;;;;1.82;100.00;98728.66;5119247;28;20317;-67
2023/12/13 05:01:19;;;;;;;93.88;20.75;;;;;;;1.96;100.00;98728.47;5116879;28;20124;-66
2023/12/13 05:03:46;;;;;;;76.97;19.10;;;;;;;1.51;100.00;98725.28;5119018;28;20063;-68
2023/12/13 05:06:12;;;;;;;83.68;18.70;;;;;;;1.86;100.00;98732.28;5116593;28;20051;-64
2023/12/13 05:08:38;;;;;;;70.50;18.77;;;;;;;2.00;100.00;98721.34;5118161;28;20413;-64
2023/12/13 05:11:05;;;;;;;62.10;16.15;;;;;;;2.05;100.00;98714.97;5117411;28;20472;-69
2023/12/13 05:13:32;;;;;;;58.60;19.25;;;;;;;1.87;100.00;98731.19;5116379;28;20429;-65
2023/12/13 05:15:58;;;;;;;60.40;17.73;;;;;;;1.86;100.00;98728.81;5118834;28;20162;-66
2023/12/13 05:18:25;;;;;;;68.00;16.83;;;;;;;1.93;100.00;98722.91;5116214;28;20055;-65
2023/12/13 05:20:51;;;;;;;50.50;15.25;;;;;;;2.14;100.00;98726.59;5118772;28;20051;-71
2023/12/13 05:23:17;;;;;;;54.58;15.68;;;;;;;1.33;100.00;98735.25;5116392;28;20080;-67
2023/12/13 05:25:44;;;;;;;51.25;15.68;;;;;;;1.81;100.00;98729.75;5118889;28;20136;-69
2023/12/13 05:28:10;;;;;;;45.47;14.43;;;;;;;1.83;100.00;98734.84;5116228;28;20132;-68
2023/12/13 05:30:37;;;;;;;45.40;14.98;;;;;;;2.11;100.00;98729.94;5118596;28;20055;-63
2023/12/13 05:33:04;;;;;;;75.43;17.88;;;;;;;1.96;100.00;98725.78;5115905;28;20051;-69
2023/12/13 05:35:31;;;;;;;78.82;15.60;;;;;;;1.91;100.00;98742.16;5118740;28;20078;-68
2023/12/13 05:37:57;;;;;;;50.88;13.65;;;;;;;2.02;100.00;98735.31;5116211;28;20391;-64
2023/12/13 05:40:23;;;;;;;48.42;13.35;;;;;;;1.37;100.00;98737.00;5115934;28;20441;-68
2023/12/13 05:42:50;;;;;;;47.50;12.75;;;;;;;1.21;100.00;98730.47;5118397;28;20333;-65
2023/12/13 05:45:16;;;;;;;48.78;12.98;;;;;;;1.68;100.00;98717.19;5116103;28;20078;-65
2023/12/13 05:47:43;;;;;;;36.45;13.68;;;;;;;1.41;100.00;98716.38;5116993;28;20140;-70
2023/12/13 05:50:10;;;;;;;57.42;15.63;;;;;;;1.00;100.00;98700.53;5115711;28;20081;-63
2023/12/13 05:52:38;;;;;;;56.97;13.25;;;;;;;1.37;100.00;98682.22;5118116;28;20315;-69
2023/12/13 05:55:06;;;;;;;59.15;15.90;;;;;;;1.67;100.00;98685.06;5115866;28;20109;-69
2023/12/13 05:57:32;;;;;;;47.83;14.35;;;;;;;1.61;100.00;98708.78;5118349;28;20130;-67
2023/12/13 05:59:58;;;;;;;112.85;15.55;;;;;;;1.49;100.00;98709.38;5115694;28;20120;-62
2023/12/13 06:02:25;;;;;;;36.55;12.27;;;;;;;1.14;100.00;98711.22;5117680;28;20051;-66
2023/12/13 06:04:52;;;;;;;43.90;13.00;;;;;;;1.72;100.00;98698.44;5115202;28;20056;-66
2023/12/13 06:07:18;;;;;;;57.92;11.50;;;;;;;1.11;100.00;98714.53;5115710;28;20082;-65
2023/12/13 06:09:45;;;;;;;30.25;11.13;;;;;;;1.49;100.00;98685.06;5100655;28;20066;-67
2023/12/13 06:12:13;;;;;;;42.47;13.95;;;;;;;1.31;100.00;98694.28;5115455;28;20100;-70
2023/12/13 06:14:39;;;;;;;32.13;11.73;;;;;;;1.54;100.00;98694.94;5117639;28;20055;-64
2023/12/13 06:17:05;;;;;;;42.88;13.02;;;;;;;1.17;100.00;98694.41;5115529;28;20140;-65
2023/12/13 06:19:32;;;;;;;45.22;13.60;;;;;;;1.24;100.00;98700.13;5117913;28;20378;-68
2023/12/13 06:21:59;;;;;;;46.22;14.27;;;;;;;1.63;100.00;98669.53;5115391;28;20072;-69
2023/12/13 06:24:26;;;;;;;37.05;12.75;;;;;;;1.54;100.00;98679.53;5117979;28;20341;-66
2023/12/13 06:26:52;;;;;;;35.75;11.90;;;;;;;1.64;100.00;98694.63;5115210;28;20052;-66
2023/12/13 06:29:18;;;;;;;59.72;14.15;;;;;;;1.69;100.00;98699.84;5117698;28;20430;-70
2023/12/13 06:31:45;;;;;;;48.17;14.20;;;;;;;1.82;100.00;98727.84;5115483;28;20097;-64
2023/12/13 06:34:11;;;;;;;41.75;14.82;;;;;;;1.88;100.00;98732.00;5117007;28;20067;-66
2023/12/13 06:36:38;;;;;;;55.45;13.10;;;;;;;1.30;100.00;98746.66;5116621;28;20051;-68
2023/12/13 06:39:07;;;;;;;46.42;14.38;;;;;;;1.58;100.00;98728.31;5114906;28;20051;-65
2023/12/13 06:41:33;;;;;;;49.47;14.75;;;;;;;1.81;100.00;98720.88;5117297;28;20093;-70
2023/12/13 06:44:00;;;;;;;45.35;14.43;;;;;;;1.74;100.00;98737.56;5115070;28;20121;-65
2023/12/13 06:46:26;;;;;;;50.05;14.32;;;;;;;1.64;100.00;98748.66;5117400;28;20120;-66
2023/12/13 06:48:54;;;;;;;38.95;11.95;;;;;;;1.80;100.00;98749.81;5114881;28;20047;-63
2023/12/13 06:51:20;;;;;;;58.92;14.65;;;;;;;1.67;100.00;98752.63;5117158;28;20051;-69
2023/12/13 06:53:46;;;;;;;39.45;14.18;;;;;;;1.70;100.00;98744.72;5114848;28;20052;-67
2023/12/13 06:56:14;;;;;;;46.13;14.63;;;;;;;1.61;100.00;98744.69;5117199;28;20073;-64
2023/12/13 06:58:40;;;;;;;42.42;14.32;;;;;;;0.98;100.00;98726.25;5114306;28;20063;-68
2023/12/13 07:01:06;;;;;;;37.53;14.00;;;;;;;1.69;100.00;98707.19;5117330;28;20057;-69
2023/12/13 07:03:33;;;;;;;63.03;20.23;;;;;;;2.00;100.00;98717.81;5115435;28;20093;-64
2023/12/13 07:06:00;;;;;;;61.55;19.55;;;;;;;2.04;100.00;98733.09;5114590;28;20083;-66
2023/12/13 07:08:26;;;;;;;115.07;17.25;;;;;;;2.00;100.00;98747.56;5116697;28;20052;-68
2023/12/13 07:10:53;;;;;;;47.28;14.70;;;;;;;1.65;100.00;98752.94;5114780;28;20078;-66
2023/12/13 07:13:20;;;;;;;43.70;14.23;;;;;;;2.01;100.00;98755.38;5116911;28;20052;-65
2023/12/13 07:15:46;;;;;;;49.63;15.63;;;;;;;1.99;100.00;98763.00;5114490;28;20058;-68
2023/12/13 07:18:13;;;;;;;95.68;16.00;;;;;;;1.76;100.00;98756.94;5116756;28;20055;-68
2023/12/13 07:20:39;;;;;;;48.03;14.15;;;;;;;1.92;100.00;98756.47;5114509;28;20066;-63
2023/12/13 07:23:05;;;;;;;64.47;16.73;;;;;;;1.53;100.00;98753.56;5116880;28;20052;-67
2023/12/13 07:25:32;;;;;;;53.88;15.48;;;;;;;1.77;100.00;98752.34;5114378;28;20098;-65
2023/12/13 07:27:58;;;;;;;124.15;20.60;;;;;;;1.69;100.00;98755.81;5116977;28;20074;-65
2023/12/13 07:30:26;;;;;;;82.80;18.35;;;;;;;1.41;100.00;98748.00;5114215;28;20056;-63
2023/12/13 07:32:53;;;;;;;48.97;17.67;;;;;;;1.23;100.00;98733.63;5114216;28;20064;-68
2023/12/13 07:35:20;;;;;;;51.05;16.17;;;;;;;1.32;100.00;98728.25;5116336;28;20071;-65
2023/12/13 07:37:47;;;;;;;56.92;16.30;;;;;;;1.34;100.00;98712.53;5114176;28;20063;-67
2023/12/13 07:40:14;;;;;;;42.42;16.65;;;;;;;1.89;100.00;98698.44;5116318;28;20081;-62
2023/12/13 07:42:41;;;;;;;44.63;13.95;;;;;;;1.62;100.00;98727.34;5114065;28;20074;-63
2023/12/13 07:45:10;;;;;;;63.15;17.80;;;;;;;1.66;100.00;98727.50;5115977;28;20058;-63
2023/12/13 07:47:38;;;;;;;70.65;18.65;;;;;;;1.46;100.00;98737.00;5114123;28;20051;-64
2023/12/13 07:50:05;;;;;;;51.38;16.30;;;;;;;1.24;100.00;98735.22;5116195;28;20338;-64
2023/12/13 07:52:32;;;;;;;77.93;31.52;;;;;;;1.54;100.00;98721.94;5114109;28;20444;-66
2023/12/13 07:54:59;;;;;;;33.97;14.73;;;;;;;1.46;100.00;98720.81;5116540;28;20047;-68
2023/12/13 07:57:25;;;;;;;30.85;12.52;;;;;;;1.14;100.00;98730.91;5114019;28;20341;-68
2023/12/13 07:59:51;;;;;;;31.70;11.60;;;;;;;1.17;100.00;98734.91;5114004;28;20436;-67
2023/12/13 08:02:20;;;;;;;35.40;11.45;;;;;;;1.40;100.00;98722.88;5099276;28;20051;-66
2023/12/13 08:04:48;;;;;;;24.20;10.65;;;;;;;1.41;100.00;98735.28;5113998;28;20117;-64
2023/12/13 08:07:15;;;;;;;25.20;10.95;;;;;;;1.61;100.00;98743.91;5116250;28;20056;-69
2023/12/13 08:09:41;;;;;;;23.77;10.07;;;;;;;1.53;100.00;98755.47;5113724;28;20062;-67
2023/12/13 08:12:08;;;;;;;20.38;10.18;;;;;;;1.72;100.00;98757.88;5118522;28;20468;-66
2023/12/13 08:14:34;;;;;;;27.88;11.05;;;;;;;1.16;100.00;98777.28;5117521;28;20055;-65
2023/12/13 08:17:02;;;;;;;36.15;11.52;;;;;;;1.64;100.00;98759.47;5119825;28;20052;-69
2023/12/13 08:19:28;;;;;;;25.02;11.73;;;;;;;1.35;100.00;98765.44;5117576;28;20052;-65
2023/12/13 08:21:55;;;;;;;24.48;10.93;;;;;;;1.12;100.00;98768.22;5120148;28;20424;-68
2023/12/13 08:24:22;;;;;;;29.63;11.98;;;;;;;0.80;100.00;98745.06;5117444;28;20482;-68
2023/12/13 08:26:48;;;;;;;76.85;22.98;;;;;;;1.27;100.00;98718.41;5118087;28;20070;-64
2023/12/13 08:29:15;;;;;;;24.40;11.52;;;;;;;1.29;100.00;98718.06;5119113;28;20059;-70
2023/12/13 08:31:42;;;;;;;20.90;11.18;;;;;;;1.59;100.00;98713.69;5117220;28;20082;-64
2023/12/13 08:34:08;;;;;;;30.10;13.27;;;;;;;1.84;100.00;98728.34;5119704;28;20047;-65
2023/12/13 08:36:35;;;;;;;38.78;14.82;;;;;;;1.62;100.00;98740.06;5116823;28;20067;-69
2023/12/13 08:39:02;;;;;;;51.55;15.27;;;;;;;1.70;100.00;98739.31;5119520;28;20346;-68
2023/12/13 08:41:29;;;;;;;31.75;14.88;;;;;;;1.05;100.00;98746.28;5117117;28;20052;-65
2023/12/13 08:43:55;;;;;;;32.05;12.50;;;;;;;1.24;100.00;98732.53;5119267;28;20095;-66
2023/12/13 08:46:22;;;;;;;41.83;13.65;;;;;;;1.55;100.00;98713.53;5116956;28;20059;-69
2023/12/13 08:48:48;;;;;;;30.58;12.73;;;;;;;1.68;100.00;98721.81;5119584;28;20051;-64
2023/12/13 08:51:15;;;;;;;33.10;12.25;;;;;;;1.81;100.00;98732.47;5117097;28;20098;-68
2023/12/13 08:53:41;;;;;;;30.75;12.70;;;;;;;2.15;100.00;98727.38;5118884;28;20142;-69
2023/12/13 08:56:10;;;;;;;31.98;13.38;;;;;;;1.69;100.00;98756.59;5117590;28;20105;-65
2023/12/13 08:58:36;;;;;;;26.60;12.27;;;;;;;1.52;100.00;98751.97;5116893;28;20142;-68
2023/12/13 09:01:03;;;;;;;46.03;12.07;;;;;;;2.01;100.00;98741.06;5119140;28;20047;-67
2023/12/13 09:03:29;;;;;;;38.03;13.95;;;;;;;2.18;100.00;98756.47;5116693;28;20062;-67
2023/12/13 09:05:55;;;;;;;49.60;12.45;;;;;;;1.68;100.00;98773.94;5118498;28;20060;-63
2023/12/13 09:08:22;;;;;;;37.05;13.05;;;;;;;1.86;100.00;98761.22;5116429;28;20052;-68
2023/12/13 09:10:48;;;;;;;42.40;14.82;;;;;;;1.99;100.00;98757.59;5118934;28;20051;-66
2023/12/13 09:13:15;;;;;;;40.40;16.15;;;;;;;2.29;100.00;98752.31;5116608;28;20094;-65
2023/12/13 09:15:42;;;;;;;42.42;15.63;;;;;;;1.95;100.00;98767.44;5119074;28;20055;-70
2023/12/13 09:18:09;;;;;;;51.55;15.50;;;;;;;1.37;100.00;98777.53;5116450;28;20051;-66
2023/12/13 09:20:35;;;;;;;37.13;14.68;;;;;;;1.80;100.00;98770.59;5118939;28;20420;-65
2023/12/13 09:23:01;;;;;;;45.00;16.38;;;;;;;1.67;100.00;98764.25;5116026;28;20056;-68
2023/12/13 09:25:28;;;;;;;45.95;17.08;;;;;;;1.98;100.00;98752.50;5116381;28;20091;-66
2023/12/13 09:27:55;;;;;;;38.20;15.80;;;;;;;1.63;100.00;98766.78;5118601;28;20146;-67
2023/12/13 09:30:22;;;;;;;42.55;14.35;;;;;;;1.91;100.00;98755.69;5116212;28;20055;-66
2023/12/13 09:32:48;;;;;;;44.38;14.27;;;;;;;1.61;100.00;98754.69;5118461;28;20325;-65
2023/12/13 09:35:15;;;;;;;34.00;14.73;;;;;;;1.97;100.00;98750.94;5116143;28;20052;-66
2023/12/13 09:37:41;;;;;;;36.55;15.50;;;;;;;2.19;100.00;98752.66;5118466;28;20138;-66
2023/12/13 09:40:15;;;;;;;33.17;14.18;;;;;;;2.20;100.00;98755.06;5115981;28;20075;-68
2023/12/13 09:42:44;;;;;;;27.70;12.05;;;;;;;2.12;100.00;98759.34;5118827;28;20426;-68
2023/12/13 09:45:15;;;;;;;30.27;12.82;;;;;;;2.16;100.00;98762.19;5115970;28;20056;-64
2023/12/13 09:47:43;;;;;;;28.27;12.02;;;;;;;2.62;100.00;98768.81;5118015;28;20059;-67
2023/12/13 09:50:11;;;;;;;32.58;12.07;;;;;;;2.55;100.00;98752.28;5117030;28;20056;-66
2023/12/13 09:52:38;;;;;;;30.63;12.77;;;;;;;2.65;100.00;98743.84;5116042;28;20067;-65
2023/12/13 09:55:07;;;;;;;26.30;11.75;;;;;;;2.89;100.00;98710.78;5117934;28;20054;-64
2023/12/13 09:57:33;;;;;;;34.38;12.57;;;;;;;2.81;100.00;98655.56;5115623;28;20432;-68
2023/12/13 10:00:00;;;;;;;31.98;13.00;;;;;;;3.01;100.00;98637.00;5118016;28;20121;-67
2023/12/13 10:02:26;;;;;;;135.43;53.40;;;;;;;2.88;100.00;98583.88;5115769;28;20125;-65
2023/12/13 10:04:54;;;;;;;44.13;18.50;;;;;;;2.77;100.00;98570.72;5118042;28;20065;-66
2023/12/13 10:07:20;;;;;;;33.85;13.55;;;;;;;2.51;100.00;98575.47;5115681;28;20048;-67
2023/12/13 10:09:47;;;;;;;32.17;13.48;;;;;;;2.75;100.00;98602.72;5117907;28;20324;-63
2023/12/13 10:12:15;;;;;;;30.42;13.07;;;;;;;2.81;100.00;98598.72;5115301;28;20059;-66
2023/12/13 10:14:43;;;;;;;36.80;15.88;;;;;;;2.83;100.00;98582.94;5116869;28;20107;-64
2023/12/13 10:17:09;;;;;;;30.25;12.43;;;;;;;2.78;100.00;98561.47;5116181;28;20048;-65
2023/12/13 10:19:35;;;;;;;32.92;12.65;;;;;;;2.93;100.00;98579.06;5115270;28;20406;-69
2023/12/13 10:22:05;;;;;;;37.75;17.50;;;;;;;2.95;100.00;98563.28;5117844;28;20079;-65
2023/12/13 10:24:32;;;;;;;32.80;15.05;;;;;;;2.91;100.00;98548.03;5115222;28;20055;-65
2023/12/13 10:26:58;;;;;;;33.42;13.65;;;;;;;2.98;100.00;98554.50;5117603;28;20051;-65
2023/12/13 10:29:24;;;;;;;38.85;15.27;;;;;;;3.01;100.00;98542.22;5115275;28;20341;-68
2023/12/13 10:31:51;;;;;;;36.00;14.40;;;;;;;2.98;100.00;98535.53;5117806;28;20078;-66
2023/12/13 10:34:17;;;;;;;38.92;15.70;;;;;;;2.89;100.00;98518.56;5114446;28;20390;-66
2023/12/13 10:36:47;;;;;;;44.45;16.13;;;;;;;2.90;100.00;98571.59;5117751;28;20143;-66
2023/12/13 10:39:16;;;;;;;36.72;14.77;;;;;;;2.88;100.00;98568.41;5115052;28;20314;-65
2023/12/13 10:41:44;;;;;;;44.85;16.25;;;;;;;2.66;100.00;98561.38;5117066;28;20154;-65
2023/12/13 10:44:16;;;;;;;56.63;21.02;;;;;;;2.96;100.00;98585.72;5115572;28;20085;-71
2023/12/13 10:46:46;;;;;;;46.53;18.50;;;;;;;3.04;100.00;98547.75;5114690;28;20146;-67
2023/12/13 10:49:15;;;;;;;61.05;21.70;;;;;;;2.92;100.00;98528.72;5116977;28;20083;-69
2023/12/13 10:51:42;;;;;;;44.75;18.95;;;;;;;2.89;100.00;98531.31;5114819;28;20123;-66
2023/12/13 10:54:10;;;;;;;49.10;20.90;;;;;;;3.02;100.00;98520.22;5117246;28;20051;-69
2023/12/13 10:56:37;;;;;;;41.38;18.13;;;;;;;2.43;100.00;98517.56;5114631;28;20051;-65
2023/12/13 10:59:06;;;;;;;49.70;19.17;;;;;;;2.47;100.00;98590.78;5117115;28;20120;-71
2023/12/13 11:01:33;;;;;;;60.35;22.83;;;;;;;2.40;100.00;98598.59;5114352;28;20060;-66
2023/12/13 11:04:12;;;;;;;37.72;15.00;;;;;;;2.70;100.00;98645.41;5117139;28;20365;-66
2023/12/13 11:06:41;;;;;;;57.83;19.90;;;;;;;2.96;100.00;98618.22;5116819;28;20394;-70
2023/12/13 11:09:13;;;;;;;45.15;18.23;;;;;;;2.87;100.00;98587.72;5114792;28;20055;-66
2023/12/13 11:11:41;;;;;;;37.63;15.68;;;;;;;2.75;100.00;98605.44;5116717;28;20056;-65
2023/12/13 11:14:08;;;;;;;42.75;17.02;;;;;;;2.54;100.00;98601.88;5114438;28;20052;-65